createdAt,value
2022-08-03T09:14:45.384Z,31.77
2022-08-03T09:17:25.301Z,32.07
2022-08-03T09:20:56.581Z,32.53
2022-08-03T09:23:51.906Z,33.18
2022-08-03T09:26:22.773Z,30.76
2022-08-03T09:29:06.917Z,30.25
2022-08-03T09:31:43.771Z,30.84
2022-08-03T09:34:24.603Z,29.82
2022-08-03T09:37:12.714Z,28.95
2022-08-03T09:39:46.188Z,28.86
2022-08-03T09:42:41.409Z,29.65
2022-08-03T09:45:26.732Z,28.93
2022-08-03T09:47:56.273Z,28.55
2022-08-03T09:50:57.039Z,28.47
2022-08-03T09:53:27.780Z,27.13
2022-08-03T09:56:35.082Z,27.56
2022-08-03T09:59:35.329Z,26.93
2022-08-03T10:02:31.952Z,26.30
2022-08-03T10:05:47.356Z,25.53
2022-08-03T10:08:42.187Z,25.56
2022-08-03T10:11:36.208Z,25.71
2022-08-03T10:14:46.522Z,25.48
2022-08-03T10:17:29.727Z,24.62
2022-08-03T10:20:17.927Z,24.42
2022-08-03T10:22:48.497Z,25.49
2022-08-03T10:25:35.199Z,24.55
2022-08-03T10:28:04.390Z,24.00
2022-08-03T10:31:07.479Z,23.25
2022-08-03T10:33:51.912Z,23.33
2022-08-03T10:36:45.562Z,23.93
2022-08-03T10:39:31.439Z,23.07
2022-08-03T10:42:02.441Z,22.93
2022-08-03T10:44:47.094Z,22.85
2022-08-03T10:47:26.193Z,22.68
2022-08-03T10:50:02.018Z,24.59
2022-08-03T10:52:49.201Z,24.51
2022-08-03T10:55:52.921Z,24.71
2022-08-03T10:58:56.823Z,24.92
2022-08-03T11:02:00.338Z,24.26
2022-08-03T11:05:14.038Z,22.28
2022-08-03T11:07:41.756Z,22.60
2022-08-03T11:11:30.402Z,22.79
2022-08-03T11:14:09.301Z,23.92
2022-08-03T11:16:55.630Z,22.29
2022-08-03T11:19:56.504Z,21.35
2022-08-03T11:23:12.008Z,21.79
2022-08-03T11:26:14.689Z,22.78
2022-08-03T11:29:04.090Z,23.96
2022-08-03T11:31:52.042Z,24.08
2022-08-03T11:35:03.528Z,24.99
2022-08-03T11:38:33.824Z,23.37
2022-08-03T11:41:18.976Z,22.59
2022-08-03T11:44:03.048Z,21.71
2022-08-03T11:47:05.084Z,21.68
2022-08-03T11:49:52.988Z,20.10
2022-08-03T11:52:52.471Z,20.06
2022-08-03T11:55:40.619Z,19.55
2022-08-03T11:59:15.213Z,19.31
2022-08-03T12:01:41.998Z,20.50
2022-08-03T12:04:11.932Z,20.15
2022-08-03T12:06:55.236Z,20.55
2022-08-03T12:09:26.042Z,20.68
2022-08-03T12:11:54.932Z,19.97
2022-08-03T12:15:17.150Z,18.74
2022-08-03T12:17:49.819Z,18.38
2022-08-03T12:20:31.267Z,19.37
2022-08-03T12:23:05.911Z,20.45
2022-08-03T12:25:43.264Z,20.43
2022-08-03T12:28:45.002Z,19.88
2022-08-03T12:31:36.960Z,19.20
2022-08-03T12:34:09.428Z,18.58
2022-08-03T12:36:38.331Z,18.19
2022-08-03T12:39:30.845Z,18.26
2022-08-03T12:42:27.216Z,18.18
2022-08-03T12:45:22.491Z,19.13
2022-08-03T12:48:14.479Z,18.07
2022-08-03T12:50:53.528Z,18.01
2022-08-03T12:53:33.956Z,18.74
2022-08-03T12:56:06.403Z,19.34
2022-08-03T12:58:42.887Z,20.48
2022-08-03T13:01:35.772Z,20.80
2022-08-03T13:04:37.623Z,21.08
2022-08-03T13:07:15.541Z,20.49
2022-08-03T13:10:40.427Z,20.11
2022-08-03T13:13:08.156Z,18.74
2022-08-03T13:15:48.194Z,17.88
2022-08-03T13:18:31.741Z,17.94
2022-08-03T13:21:00.523Z,17.63
2022-08-03T13:23:35.991Z,17.30
2022-08-03T13:26:08.677Z,18.18
2022-08-03T13:28:37.634Z,18.49
2022-08-03T13:31:07.208Z,17.75
2022-08-03T13:33:40.443Z,18.31
2022-08-03T13:36:09.105Z,17.43
2022-08-03T13:38:44.020Z,17.01
2022-08-03T13:41:18.808Z,17.79
2022-08-03T13:44:29.326Z,16.98
2022-08-03T13:47:15.800Z,17.32
2022-08-03T13:50:00.189Z,16.75
2022-08-03T13:52:35.570Z,16.52
2022-08-03T13:55:06.782Z,16.79
2022-08-03T13:58:04.030Z,15.84
2022-08-03T14:00:34.779Z,16.37
2022-08-03T14:03:13.251Z,16.19
2022-08-03T14:05:44.860Z,16.23
2022-08-03T14:08:15.561Z,15.73
2022-08-03T14:10:50.637Z,15.81
2022-08-03T14:13:23.108Z,16.87
2022-08-03T14:15:52.981Z,16.81
2022-08-03T14:18:28.872Z,16.02
2022-08-03T14:21:06.599Z,15.99
2022-08-03T14:23:42.642Z,16.07
2022-08-03T14:26:29.284Z,15.63
2022-08-03T14:28:58.677Z,15.07
2022-08-03T14:32:11.246Z,15.25
2022-08-03T14:34:20.912Z,14.73
2022-08-03T14:36:52.137Z,14.35
2022-08-03T14:39:58.260Z,14.85
2022-08-03T14:42:23.057Z,14.15
2022-08-03T14:45:01.482Z,13.89
2022-08-03T14:50:34.053Z,13.79
